createdAt,value
2023-05-15T00:00:13.816Z,11.66
2023-05-15T00:01:16.592Z,11.65
2023-05-15T00:02:18.420Z,11.67
2023-05-15T00:03:20.447Z,11.65
2023-05-15T00:04:22.452Z,11.64
2023-05-15T00:05:24.552Z,11.64
2023-05-15T00:06:28.358Z,11.60
2023-05-15T00:07:30.376Z,11.60
2023-05-15T00:08:32.232Z,11.57
2023-05-15T00:09:34.102Z,11.56
2023-05-15T00:10:36.151Z,11.57
2023-05-15T00:11:38.052Z,11.56
2023-05-15T00:12:39.996Z,11.55
2023-05-15T00:13:41.843Z,11.53
2023-05-15T00:14:43.792Z,11.52
2023-05-15T00:15:45.698Z,11.51
2023-05-15T00:16:47.702Z,11.52
2023-05-15T00:17:49.602Z,11.51
2023-05-15T00:18:51.600Z,11.53
2023-05-15T00:19:57.796Z,11.54
2023-05-15T00:20:59.846Z,11.55
2023-05-15T00:22:01.821Z,11.58
2023-05-15T00:23:03.756Z,11.61
2023-05-15T00:24:05.871Z,11.61
2023-05-15T00:25:07.839Z,11.61
2023-05-15T00:26:09.786Z,11.62
2023-05-15T00:27:11.628Z,11.63
2023-05-15T00:28:13.535Z,11.64
2023-05-15T00:29:15.294Z,11.65
2023-05-15T00:30:17.224Z,11.65
2023-05-15T00:31:19.077Z,11.65
2023-05-15T00:32:20.971Z,11.63
2023-05-15T00:33:22.829Z,11.59
2023-05-15T00:34:24.920Z,11.60
2023-05-15T00:35:27.029Z,11.61
2023-05-15T00:36:28.959Z,11.60
2023-05-15T00:37:30.767Z,11.61
2023-05-15T00:38:33.933Z,11.61
2023-05-15T00:39:36.408Z,11.57
2023-05-15T00:40:39.204Z,11.58
2023-05-15T00:41:41.385Z,11.58
2023-05-15T00:42:43.775Z,11.60
2023-05-15T00:43:46.970Z,11.61
2023-05-15T00:44:49.168Z,11.55
2023-05-15T00:45:52.316Z,11.52
2023-05-15T00:46:54.913Z,11.52
2023-05-15T00:47:58.145Z,11.54
2023-05-15T00:49:00.387Z,11.55
2023-05-15T00:50:02.870Z,11.59
2023-05-15T00:51:04.821Z,11.61
2023-05-15T00:52:08.849Z,11.63
2023-05-15T00:53:11.306Z,11.60
2023-05-15T00:54:13.285Z,11.61
2023-05-15T00:55:15.214Z,11.58
2023-05-15T00:56:17.850Z,11.57
2023-05-15T00:57:22.006Z,11.56
2023-05-15T00:58:24.200Z,11.56
2023-05-15T00:59:30.494Z,11.57
2023-05-15T01:00:33.436Z,11.56
2023-05-15T01:01:36.295Z,11.59
2023-05-15T01:02:38.362Z,11.60
2023-05-15T01:03:40.389Z,11.62
2023-05-15T01:04:42.404Z,11.63
2023-05-15T01:05:44.494Z,11.63
2023-05-15T01:06:46.432Z,11.63
2023-05-15T01:08:04.715Z,11.63
2023-05-15T01:09:08.546Z,11.65
2023-05-15T01:10:11.034Z,11.65
2023-05-15T01:11:14.199Z,11.65
2023-05-15T01:12:17.123Z,11.64
2023-05-15T01:13:22.837Z,11.59
2023-05-15T01:14:24.741Z,11.54
2023-05-15T01:15:26.889Z,11.52
2023-05-15T01:16:28.814Z,11.54
2023-05-15T01:17:31.556Z,11.55
2023-05-15T01:18:34.162Z,11.56
2023-05-15T01:19:37.125Z,11.59
2023-05-15T01:20:57.729Z,11.60
2023-05-15T01:22:16.243Z,11.60
2023-05-15T01:23:36.551Z,11.61
2023-05-15T01:24:59.692Z,11.59
2023-05-15T01:26:04.636Z,11.57
2023-05-15T01:27:06.497Z,11.59
2023-05-15T01:28:13.203Z,11.61
2023-05-15T01:29:18.630Z,11.63
2023-05-15T01:30:20.315Z,11.62
2023-05-15T01:31:24.044Z,11.59
2023-05-15T01:32:28.870Z,11.54
2023-05-15T01:33:34.744Z,11.54
2023-05-15T01:34:44.439Z,11.54
2023-05-15T01:35:53.231Z,11.55
2023-05-15T01:36:57.247Z,11.52
2023-05-15T01:38:17.352Z,11.51
2023-05-15T01:39:23.387Z,11.45
2023-05-15T01:40:26.860Z,11.41
2023-05-15T01:41:30.553Z,11.40
2023-05-15T01:42:34.623Z,11.39
2023-05-15T01:43:39.426Z,11.41
2023-05-15T01:44:43.947Z,11.43
2023-05-15T01:45:46.362Z,11.46
2023-05-15T01:46:51.976Z,11.47
2023-05-15T01:47:54.787Z,11.47
2023-05-15T01:48:58.769Z,11.45
2023-05-15T01:50:02.263Z,11.44
2023-05-15T01:51:06.396Z,11.40
2023-05-15T01:52:14.799Z,11.38
2023-05-15T01:53:17.302Z,11.35
2023-05-15T01:54:19.811Z,11.34
2023-05-15T01:55:23.378Z,11.34
2023-05-15T01:56:26.483Z,11.38
2023-05-15T01:57:29.178Z,11.41
2023-05-15T01:58:32.153Z,11.44
2023-05-15T01:59:34.995Z,11.45
2023-05-15T02:00:38.026Z,11.46
2023-05-15T02:01:40.664Z,11.44
2023-05-15T02:02:43.557Z,11.44
2023-05-15T02:03:46.412Z,11.43
2023-05-15T02:04:49.159Z,11.39
2023-05-15T02:05:52.169Z,11.37
2023-05-15T02:06:54.255Z,11.36
2023-05-15T02:07:56.958Z,11.36
2023-05-15T02:08:59.613Z,11.33
2023-05-15T02:10:02.432Z,11.34
2023-05-15T02:11:05.178Z,11.35
2023-05-15T02:12:07.695Z,11.34
2023-05-15T02:13:13.009Z,11.33
2023-05-15T02:14:16.666Z,11.32
2023-05-15T02:15:19.486Z,11.35
2023-05-15T02:16:21.511Z,11.37
2023-05-15T02:17:24.252Z,11.40
2023-05-15T02:18:26.356Z,11.44
2023-05-15T02:19:28.208Z,11.46
2023-05-15T02:20:30.124Z,11.45
2023-05-15T02:21:32.074Z,11.45
2023-05-15T02:22:34.165Z,11.43
2023-05-15T02:23:35.979Z,11.41
2023-05-15T02:24:37.876Z,11.40
2023-05-15T02:25:47.939Z,11.41
2023-05-15T02:26:55.624Z,11.43
2023-05-15T02:28:00.547Z,11.41
2023-05-15T02:29:19.407Z,11.43
2023-05-15T02:30:30.194Z,11.43
2023-05-15T02:31:53.041Z,11.44
2023-05-15T02:33:13.558Z,11.44
2023-05-15T02:34:21.301Z,11.42
2023-05-15T02:35:35.083Z,11.38
2023-05-15T02:36:40.917Z,11.36
2023-05-15T02:37:45.920Z,11.35
2023-05-15T02:38:49.275Z,11.31
2023-05-15T02:39:54.615Z,11.28
2023-05-15T02:40:57.464Z,11.27
2023-05-15T02:42:00.606Z,11.27
2023-05-15T02:43:02.666Z,11.28
2023-05-15T02:44:05.118Z,11.25
2023-05-15T02:45:08.029Z,11.26
2023-05-15T02:46:10.861Z,11.27
2023-05-15T02:47:13.022Z,11.32
2023-05-15T02:48:16.114Z,11.34
2023-05-15T02:49:18.157Z,11.33
2023-05-15T02:50:20.682Z,11.35
2023-05-15T02:51:22.491Z,11.35
2023-05-15T02:52:25.028Z,11.35
2023-05-15T02:53:27.041Z,11.35
2023-05-15T02:54:28.853Z,11.33
2023-05-15T02:55:31.216Z,11.35
2023-05-15T02:56:33.046Z,11.33
2023-05-15T02:57:34.898Z,11.32
2023-05-15T02:58:37.432Z,11.32
2023-05-15T02:59:39.387Z,11.30
2023-05-15T03:00:41.306Z,11.27
2023-05-15T03:01:43.517Z,11.22
2023-05-15T03:02:45.467Z,11.24
2023-05-15T03:03:47.779Z,11.25
2023-05-15T03:04:49.632Z,11.26
2023-05-15T03:05:51.456Z,11.26
2023-05-15T03:06:53.352Z,11.30
2023-05-15T03:07:55.186Z,11.30
2023-05-15T03:08:57.094Z,11.30
2023-05-15T03:09:58.896Z,11.27
2023-05-15T03:11:00.784Z,11.26
2023-05-15T03:12:02.670Z,11.25
2023-05-15T03:13:04.568Z,11.26
2023-05-15T03:14:06.465Z,11.28
2023-05-15T03:15:08.665Z,11.31
2023-05-15T03:16:10.636Z,11.33
2023-05-15T03:17:12.701Z,11.34
2023-05-15T03:18:15.828Z,11.32
2023-05-15T03:19:19.817Z,11.33
2023-05-15T03:20:21.703Z,11.33
2023-05-15T03:21:23.561Z,11.29
2023-05-15T03:22:26.096Z,11.23
2023-05-15T03:23:27.988Z,11.18
2023-05-15T03:24:29.847Z,11.15
2023-05-15T03:25:31.775Z,11.08
2023-05-15T03:26:33.627Z,11.04
2023-05-15T03:27:35.531Z,11.00
2023-05-15T03:28:37.352Z,11.00
2023-05-15T03:29:39.591Z,11.03
2023-05-15T03:30:43.981Z,11.09
2023-05-15T03:31:45.840Z,11.12
2023-05-15T03:32:47.663Z,11.12
2023-05-15T03:33:51.073Z,11.08
2023-05-15T03:34:52.948Z,11.01
2023-05-15T03:35:54.986Z,10.98
2023-05-15T03:36:56.920Z,11.00
2023-05-15T03:37:58.738Z,11.04
2023-05-15T03:39:00.673Z,11.08
2023-05-15T03:40:02.610Z,11.08
2023-05-15T03:41:04.462Z,11.04
2023-05-15T03:42:06.502Z,11.02
2023-05-15T03:43:08.352Z,11.06
2023-05-15T03:44:10.198Z,11.06
2023-05-15T03:45:12.197Z,11.08
2023-05-15T03:46:14.022Z,11.11
2023-05-15T03:47:16.256Z,11.15
2023-05-15T03:48:18.140Z,11.17
2023-05-15T03:49:19.909Z,11.20
2023-05-15T03:50:21.788Z,11.15
2023-05-15T03:51:24.542Z,11.12
2023-05-15T03:52:26.423Z,11.07
2023-05-15T03:53:28.339Z,11.10
2023-05-15T03:54:30.931Z,11.12
2023-05-15T03:55:32.880Z,11.11
2023-05-15T03:56:34.809Z,11.12
2023-05-15T03:57:36.814Z,11.12
2023-05-15T03:58:38.723Z,11.13
2023-05-15T03:59:40.729Z,11.12
2023-05-15T04:00:42.636Z,11.10
2023-05-15T04:01:59.416Z,11.07
2023-05-15T04:03:05.833Z,11.05
2023-05-15T04:04:07.974Z,11.03
2023-05-15T04:05:10.222Z,11.02
2023-05-15T04:06:12.262Z,11.01
2023-05-15T04:07:14.084Z,11.00
2023-05-15T04:08:16.827Z,10.96
2023-05-15T04:09:18.652Z,10.99
2023-05-15T04:10:20.583Z,11.00
2023-05-15T04:11:23.728Z,11.00
2023-05-15T04:12:28.375Z,11.01
2023-05-15T04:13:30.191Z,10.98
2023-05-15T04:14:32.068Z,10.99
2023-05-15T04:15:35.434Z,10.99
2023-05-15T04:16:37.337Z,10.83
2023-05-15T04:17:39.316Z,10.70
2023-05-15T04:18:41.182Z,10.62
2023-05-15T04:19:43.216Z,10.53
2023-05-15T04:20:45.076Z,10.48
2023-05-15T04:21:47.025Z,10.41
2023-05-15T04:22:49.114Z,10.36
2023-05-15T04:23:50.990Z,10.35
2023-05-15T04:24:52.911Z,10.36
2023-05-15T04:25:55.195Z,10.36
2023-05-15T04:26:57.130Z,10.35
2023-05-15T04:27:59.011Z,10.42
2023-05-15T04:29:04.590Z,10.47
2023-05-15T04:30:07.457Z,10.49
2023-05-15T04:31:09.291Z,10.47
2023-05-15T04:32:13.149Z,10.50
2023-05-15T04:33:15.114Z,10.50
2023-05-15T04:34:17.308Z,10.48
2023-05-15T04:35:19.435Z,10.50
2023-05-15T04:36:21.352Z,10.53
2023-05-15T04:37:23.222Z,10.55
2023-05-15T04:38:25.147Z,10.59
2023-05-15T04:39:27.069Z,10.64
2023-05-15T04:40:29.091Z,10.61
2023-05-15T04:41:32.026Z,10.66
2023-05-15T04:42:34.549Z,10.66
2023-05-15T04:43:36.647Z,10.59
2023-05-15T04:44:38.489Z,10.49
2023-05-15T04:45:40.387Z,10.43
2023-05-15T04:46:42.242Z,10.31
2023-05-15T04:47:44.204Z,10.32
2023-05-15T04:48:46.429Z,10.37
2023-05-15T04:49:48.467Z,10.27
2023-05-15T04:50:50.361Z,10.21
2023-05-15T04:51:52.178Z,10.19
2023-05-15T04:52:54.411Z,10.21
2023-05-15T04:53:56.265Z,10.26
2023-05-15T04:54:58.244Z,10.33
2023-05-15T04:56:00.135Z,10.39
2023-05-15T04:57:02.914Z,10.46
2023-05-15T04:58:04.923Z,10.51
2023-05-15T04:59:06.848Z,10.53
2023-05-15T05:00:12.534Z,10.58
2023-05-15T05:01:14.447Z,10.61
2023-05-15T05:02:16.323Z,10.64
2023-05-15T05:03:18.349Z,10.65
2023-05-15T05:04:20.495Z,10.68
2023-05-15T05:05:22.566Z,10.69
2023-05-15T05:06:24.720Z,10.71
2023-05-15T05:07:26.546Z,10.70
2023-05-15T05:08:28.403Z,10.70
2023-05-15T05:09:30.426Z,10.67
2023-05-15T05:10:32.228Z,10.59
2023-05-15T05:11:34.117Z,10.60
2023-05-15T05:12:35.928Z,10.63
2023-05-15T05:13:37.869Z,10.60
2023-05-15T05:14:42.527Z,10.59
2023-05-15T05:15:44.683Z,10.59
2023-05-15T05:16:46.532Z,10.56
2023-05-15T05:17:48.402Z,10.54
2023-05-15T05:18:51.039Z,10.52
2023-05-15T05:19:52.990Z,10.52
2023-05-15T05:21:01.907Z,10.54
2023-05-15T05:22:07.914Z,10.52
2023-05-15T05:23:09.866Z,10.50
2023-05-15T05:24:12.122Z,10.47
2023-05-15T05:25:14.063Z,10.50
2023-05-15T05:26:15.873Z,10.48
2023-05-15T05:27:17.783Z,10.49
2023-05-15T05:28:19.647Z,10.48
2023-05-15T05:29:24.193Z,10.49
2023-05-15T05:30:26.149Z,10.50
2023-05-15T05:31:28.042Z,10.55
2023-05-15T05:32:29.860Z,10.50
2023-05-15T05:33:31.763Z,10.50
2023-05-15T05:34:33.627Z,10.52
2023-05-15T05:35:35.455Z,10.44
2023-05-15T05:36:37.448Z,10.42
2023-05-15T05:37:41.297Z,10.40
2023-05-15T05:38:43.532Z,10.36
2023-05-15T05:39:45.461Z,10.35
2023-05-15T05:40:47.303Z,10.39
2023-05-15T05:41:49.168Z,10.47
2023-05-15T05:42:51.058Z,10.54
2023-05-15T05:43:52.870Z,10.60
2023-05-15T05:44:54.882Z,10.61
2023-05-15T05:45:56.736Z,10.63
2023-05-15T05:46:58.520Z,10.63
2023-05-15T05:48:00.385Z,10.59
2023-05-15T05:49:02.297Z,10.57
2023-05-15T05:50:04.326Z,10.56
2023-05-15T05:51:06.448Z,10.59
2023-05-15T05:52:08.542Z,10.63
2023-05-15T05:53:10.515Z,10.63
2023-05-15T05:54:12.407Z,10.58
2023-05-15T05:55:14.439Z,10.56
2023-05-15T05:56:16.453Z,10.59
2023-05-15T05:57:18.396Z,10.60
2023-05-15T05:58:25.547Z,10.65
2023-05-15T05:59:29.489Z,10.69
2023-05-15T06:00:31.927Z,10.75
2023-05-15T06:01:33.955Z,10.80
2023-05-15T06:02:36.485Z,10.85
2023-05-15T06:03:39.653Z,10.90
2023-05-15T06:04:41.850Z,10.94
2023-05-15T06:05:43.765Z,10.97
2023-05-15T06:06:45.615Z,11.01
2023-05-15T06:07:48.208Z,11.06
2023-05-15T06:08:50.035Z,11.08
2023-05-15T06:09:52.104Z,11.09
2023-05-15T06:10:54.026Z,11.11
2023-05-15T06:11:55.894Z,11.15
2023-05-15T06:12:57.794Z,11.18
2023-05-15T06:13:59.635Z,11.21
2023-05-15T06:15:01.462Z,11.22
2023-05-15T06:16:04.091Z,11.21
2023-05-15T06:17:06.177Z,11.24
2023-05-15T06:18:08.300Z,11.24
2023-05-15T06:19:10.158Z,11.26
2023-05-15T06:20:12.381Z,11.27
2023-05-15T06:21:14.216Z,11.29
2023-05-15T06:22:16.056Z,11.25
2023-05-15T06:23:18.086Z,11.28
2023-05-15T06:24:19.925Z,11.28
2023-05-15T06:25:21.979Z,11.27
2023-05-15T06:26:23.944Z,11.26
2023-05-15T06:27:29.595Z,11.23
2023-05-15T06:28:31.467Z,11.19
2023-05-15T06:29:33.247Z,11.15
2023-05-15T06:30:35.144Z,11.12
2023-05-15T06:31:37.009Z,11.14
2023-05-15T06:32:39.918Z,11.17
2023-05-15T06:33:41.762Z,11.20
2023-05-15T06:34:43.611Z,11.21
2023-05-15T06:35:45.981Z,11.24
2023-05-15T06:36:47.781Z,11.27
2023-05-15T06:37:50.589Z,11.29
2023-05-15T06:38:52.468Z,11.30
2023-05-15T06:39:54.317Z,11.27
2023-05-15T06:40:56.264Z,11.24
2023-05-15T06:42:01.719Z,11.22
2023-05-15T06:43:04.101Z,11.22
2023-05-15T06:44:06.009Z,11.25
2023-05-15T06:45:08.127Z,11.27
2023-05-15T06:46:10.117Z,11.30
2023-05-15T06:47:12.400Z,11.33
2023-05-15T06:48:14.294Z,11.34
2023-05-15T06:49:16.155Z,11.38
2023-05-15T06:50:18.125Z,11.40
2023-05-15T06:51:20.100Z,11.37
2023-05-15T06:52:21.930Z,11.36
2023-05-15T06:53:23.915Z,11.40
2023-05-15T06:54:25.834Z,11.45
2023-05-15T06:55:27.922Z,11.49
2023-05-15T06:56:29.974Z,11.50
2023-05-15T06:57:31.816Z,11.47
2023-05-15T06:58:33.655Z,11.46
2023-05-15T06:59:36.044Z,11.47
2023-05-15T07:00:37.856Z,11.49
2023-05-15T07:01:39.810Z,11.53
2023-05-15T07:02:41.793Z,11.54
2023-05-15T07:03:43.626Z,11.57
2023-05-15T07:04:45.597Z,11.61
2023-05-15T07:05:47.535Z,11.64
2023-05-15T07:06:49.430Z,11.63
2023-05-15T07:07:51.253Z,11.63
2023-05-15T07:08:53.166Z,11.66
2023-05-15T07:09:55.012Z,11.62
2023-05-15T07:10:57.050Z,11.59
2023-05-15T07:11:58.935Z,11.62
2023-05-15T07:13:00.854Z,11.59
2023-05-15T07:14:02.710Z,11.61
2023-05-15T07:15:05.162Z,11.56
2023-05-15T07:16:07.240Z,11.55
2023-05-15T07:17:09.498Z,11.51
2023-05-15T07:18:11.387Z,11.53
2023-05-15T07:19:13.653Z,11.57
2023-05-15T07:20:16.033Z,11.64
2023-05-15T07:21:17.920Z,11.67
2023-05-15T07:22:20.030Z,11.69
2023-05-15T07:23:21.906Z,11.72
2023-05-15T07:24:23.742Z,11.72
2023-05-15T07:25:25.924Z,11.71
2023-05-15T07:26:36.329Z,11.76
2023-05-15T07:27:40.547Z,11.74
2023-05-15T07:28:42.427Z,11.76
2023-05-15T07:29:44.337Z,11.80
2023-05-15T07:30:46.291Z,11.82
2023-05-15T07:31:48.140Z,11.86
2023-05-15T07:32:50.257Z,11.91
2023-05-15T07:33:52.245Z,11.90
2023-05-15T07:34:54.079Z,11.81
2023-05-15T07:35:56.030Z,11.79
2023-05-15T07:36:57.896Z,11.72
2023-05-15T07:37:59.860Z,11.72
2023-05-15T07:39:01.746Z,11.78
2023-05-15T07:40:04.854Z,11.84
2023-05-15T07:41:06.966Z,11.91
2023-05-15T07:42:08.871Z,11.96
2023-05-15T07:43:10.800Z,11.99
2023-05-15T07:44:12.609Z,12.05
2023-05-15T07:45:14.589Z,12.06
2023-05-15T07:46:16.613Z,12.02
2023-05-15T07:47:18.570Z,12.03
2023-05-15T07:48:20.720Z,12.09
2023-05-15T07:49:22.549Z,12.13
2023-05-15T07:50:24.487Z,12.14
2023-05-15T07:51:26.368Z,12.16
2023-05-15T07:52:28.225Z,12.11
2023-05-15T07:53:30.108Z,12.11
2023-05-15T07:54:32.715Z,12.12
2023-05-15T07:55:34.538Z,12.15
2023-05-15T07:56:36.498Z,12.12
2023-05-15T07:57:38.499Z,12.13
2023-05-15T07:58:40.691Z,12.17
2023-05-15T07:59:42.506Z,12.19
2023-05-15T08:00:44.398Z,12.17
2023-05-15T08:01:46.258Z,12.18
2023-05-15T08:02:49.063Z,12.20
2023-05-15T08:03:51.131Z,12.21
2023-05-15T08:04:53.100Z,12.24
2023-05-15T08:05:54.968Z,12.28
2023-05-15T08:06:57.067Z,12.31
2023-05-15T08:07:58.996Z,12.33
2023-05-15T08:09:01.210Z,12.35
2023-05-15T08:10:06.417Z,12.33
2023-05-15T08:11:08.340Z,12.33
2023-05-15T08:12:17.948Z,12.32
2023-05-15T08:13:19.808Z,12.30
2023-05-15T08:14:21.757Z,12.29
2023-05-15T08:15:24.424Z,12.33
2023-05-15T08:16:26.729Z,12.32
2023-05-15T08:17:28.800Z,12.31
2023-05-15T08:18:30.702Z,12.34
2023-05-15T08:19:32.706Z,12.32
2023-05-15T08:20:34.603Z,12.30
2023-05-15T08:21:36.423Z,12.31
2023-05-15T08:22:38.366Z,12.30
2023-05-15T08:23:40.163Z,12.26
2023-05-15T08:24:42.124Z,12.23
2023-05-15T08:25:43.982Z,12.25
2023-05-15T08:26:45.812Z,12.27
2023-05-15T08:27:47.666Z,12.30
2023-05-15T08:28:49.504Z,12.36
2023-05-15T08:29:51.583Z,12.34
2023-05-15T08:30:53.575Z,12.33
2023-05-15T08:31:55.448Z,12.36
2023-05-15T08:32:57.351Z,12.33
2023-05-15T08:33:59.212Z,12.34
2023-05-15T08:35:01.149Z,12.34
2023-05-15T08:36:03.042Z,12.36
2023-05-15T08:37:06.381Z,12.40
2023-05-15T08:38:08.230Z,12.40
2023-05-15T08:39:10.465Z,12.42
2023-05-15T08:40:12.671Z,12.43
2023-05-15T08:41:28.801Z,12.44
2023-05-15T08:42:45.927Z,12.47
2023-05-15T08:43:48.977Z,12.51
2023-05-15T08:44:50.906Z,12.52
2023-05-15T08:45:54.392Z,12.55
2023-05-15T08:46:58.336Z,12.58
2023-05-15T08:48:00.936Z,12.63
2023-05-15T08:49:11.760Z,12.65
2023-05-15T08:50:15.576Z,12.70
2023-05-15T08:51:19.167Z,12.72
2023-05-15T08:52:21.323Z,12.77
2023-05-15T08:53:23.334Z,12.83
2023-05-15T08:54:25.872Z,12.85
2023-05-15T08:55:29.370Z,12.88
2023-05-15T08:56:31.357Z,12.91
2023-05-15T08:57:33.395Z,12.92
2023-05-15T08:58:35.309Z,12.94
2023-05-15T08:59:38.064Z,12.94
2023-05-15T09:00:39.950Z,12.88
2023-05-15T09:01:41.931Z,12.85
2023-05-15T09:02:43.998Z,12.80
2023-05-15T09:03:47.610Z,12.78
2023-05-15T09:04:49.595Z,12.74
2023-05-15T09:05:53.660Z,12.72
2023-05-15T09:06:56.465Z,12.73
2023-05-15T09:08:00.181Z,12.74
2023-05-15T09:09:02.648Z,12.77
2023-05-15T09:10:04.794Z,12.76
2023-05-15T09:11:08.169Z,12.76
2023-05-15T09:12:11.900Z,12.74
2023-05-15T09:13:15.213Z,12.80
2023-05-15T09:14:17.113Z,12.88
2023-05-15T09:15:22.336Z,12.97
2023-05-15T09:16:24.359Z,13.02
2023-05-15T09:17:26.252Z,13.08
2023-05-15T09:18:28.211Z,13.13
2023-05-15T09:19:30.174Z,13.16
2023-05-15T09:20:36.986Z,13.17
2023-05-15T09:21:38.890Z,13.19
2023-05-15T09:22:41.135Z,13.28
2023-05-15T09:23:43.090Z,13.30
2023-05-15T09:24:49.491Z,13.34
2023-05-15T09:25:56.001Z,13.36
2023-05-15T09:27:03.144Z,13.40
2023-05-15T09:28:05.825Z,13.44
2023-05-15T09:29:07.712Z,13.43
2023-05-15T09:30:10.453Z,13.45
2023-05-15T09:31:12.516Z,13.44
2023-05-15T09:32:15.084Z,13.43
2023-05-15T09:33:17.349Z,13.37
2023-05-15T09:34:19.155Z,13.35
2023-05-15T09:35:34.388Z,13.34
2023-05-15T09:36:37.164Z,13.35
2023-05-15T09:37:39.042Z,13.37
2023-05-15T09:38:48.746Z,13.38
2023-05-15T09:39:50.678Z,13.37
2023-05-15T09:41:01.186Z,13.38
2023-05-15T09:42:06.344Z,13.35
2023-05-15T09:43:10.263Z,13.33
2023-05-15T09:44:21.250Z,13.28
2023-05-15T09:45:25.941Z,13.25
2023-05-15T09:46:28.029Z,13.16
2023-05-15T09:47:30.132Z,13.16
2023-05-15T09:48:32.984Z,13.20
2023-05-15T09:49:35.647Z,13.25
2023-05-15T09:50:40.160Z,13.21
2023-05-15T09:51:43.597Z,13.18
2023-05-15T09:52:45.684Z,13.18
2023-05-15T09:53:52.140Z,13.18
2023-05-15T09:54:54.123Z,13.18
2023-05-15T09:55:56.513Z,13.21
2023-05-15T09:57:07.296Z,13.26
2023-05-15T09:58:11.264Z,13.30
2023-05-15T09:59:14.865Z,13.32
2023-05-15T10:00:20.121Z,13.36
2023-05-15T10:01:23.214Z,13.40
2023-05-15T10:02:32.659Z,13.42
2023-05-15T10:03:34.730Z,13.42
2023-05-15T10:04:37.120Z,13.42
2023-05-15T10:05:43.723Z,13.44
2023-05-15T10:06:46.996Z,13.44
2023-05-15T10:07:54.181Z,13.44
2023-05-15T10:08:56.292Z,13.47
2023-05-15T10:09:58.621Z,13.47
2023-05-15T10:11:01.870Z,13.46
2023-05-15T10:12:04.469Z,13.49
2023-05-15T10:13:07.600Z,13.48
2023-05-15T10:14:11.295Z,13.50
2023-05-15T10:15:13.919Z,13.52
2023-05-15T10:16:16.081Z,13.54
2023-05-15T10:17:21.067Z,13.55
2023-05-15T10:18:26.467Z,13.59
2023-05-15T10:19:29.073Z,13.60
2023-05-15T10:20:32.410Z,13.58
2023-05-15T10:21:35.456Z,13.56
2023-05-15T10:22:38.506Z,13.60
2023-05-15T10:23:42.104Z,13.57
2023-05-15T10:24:45.195Z,13.54
2023-05-15T10:26:01.025Z,13.54
2023-05-15T10:27:03.710Z,13.50
2023-05-15T10:28:08.841Z,13.50
2023-05-15T10:29:11.976Z,13.53
2023-05-15T10:30:17.036Z,13.54
2023-05-15T10:31:18.994Z,13.52
2023-05-15T10:32:21.717Z,13.53
2023-05-15T10:33:24.482Z,13.55
2023-05-15T10:34:26.610Z,13.63
2023-05-15T10:35:28.938Z,13.65
2023-05-15T10:36:33.049Z,13.66
2023-05-15T10:37:36.810Z,13.65
2023-05-15T10:38:38.994Z,13.66
2023-05-15T10:39:41.575Z,13.66
2023-05-15T10:40:44.313Z,13.63
2023-05-15T10:41:46.778Z,13.55
2023-05-15T10:42:49.057Z,13.52
2023-05-15T10:43:53.477Z,13.50
2023-05-15T10:45:00.402Z,13.53
2023-05-15T10:46:04.092Z,13.52
2023-05-15T10:47:06.343Z,13.47
2023-05-15T10:48:08.923Z,13.48
2023-05-15T10:49:10.817Z,13.49
2023-05-15T10:50:13.785Z,13.53
2023-05-15T10:51:16.914Z,13.57
2023-05-15T10:52:19.089Z,13.61
2023-05-15T10:53:21.331Z,13.64
2023-05-15T10:54:23.321Z,13.62
2023-05-15T10:55:25.176Z,13.63
2023-05-15T10:56:38.087Z,13.63
2023-05-15T10:57:40.069Z,13.60
2023-05-15T10:58:46.853Z,13.60
2023-05-15T10:59:48.982Z,13.60
2023-05-15T11:00:51.342Z,13.58
2023-05-15T11:01:53.499Z,13.59
2023-05-15T11:02:57.460Z,13.57
2023-05-15T11:04:06.240Z,13.51
2023-05-15T11:05:08.437Z,13.51
2023-05-15T11:06:14.159Z,13.49
2023-05-15T11:07:16.845Z,13.52
2023-05-15T11:08:19.782Z,13.53
2023-05-15T11:09:21.732Z,13.52
2023-05-15T11:10:29.913Z,13.44
2023-05-15T11:11:51.779Z,13.46
2023-05-15T11:13:00.238Z,13.45
2023-05-15T11:14:05.156Z,13.41
2023-05-15T11:15:10.204Z,13.44
2023-05-15T11:16:12.903Z,13.47
2023-05-15T11:17:16.859Z,13.48
2023-05-15T11:18:20.342Z,13.44
2023-05-15T11:19:35.383Z,13.46
2023-05-15T11:20:41.572Z,13.49
2023-05-15T11:21:46.990Z,13.48
2023-05-15T11:22:57.913Z,13.47
2023-05-15T11:24:06.030Z,13.43
2023-05-15T11:25:09.580Z,13.41
2023-05-15T11:26:13.434Z,13.44
2023-05-15T11:27:18.263Z,13.45
2023-05-15T11:28:24.063Z,13.47
2023-05-15T11:29:26.076Z,13.48
2023-05-15T11:30:38.374Z,13.49
2023-05-15T11:31:40.390Z,13.49
2023-05-15T11:32:48.910Z,13.51
2023-05-15T11:33:52.405Z,13.47
2023-05-15T11:34:59.999Z,13.45
2023-05-15T11:36:01.957Z,13.44
2023-05-15T11:37:04.595Z,13.43
2023-05-15T11:38:12.081Z,13.44
2023-05-15T11:39:13.903Z,13.44
2023-05-15T11:40:45.212Z,13.44
2023-05-15T11:41:47.126Z,13.45
2023-05-15T11:43:07.674Z,13.46
2023-05-15T11:44:09.598Z,13.46
2023-05-15T11:45:11.564Z,13.46
2023-05-15T11:46:14.826Z,13.42
2023-05-15T11:47:17.525Z,13.39
2023-05-15T11:48:19.948Z,13.37
2023-05-15T11:49:23.141Z,13.39
2023-05-15T11:50:25.676Z,13.44
2023-05-15T11:51:28.087Z,13.45
2023-05-15T11:52:30.993Z,13.44
2023-05-15T11:53:33.581Z,13.44
2023-05-15T11:54:35.810Z,13.47
2023-05-15T11:55:38.557Z,13.49
2023-05-15T11:56:47.244Z,13.49
2023-05-15T11:57:49.289Z,13.46
2023-05-15T11:58:52.169Z,13.45
2023-05-15T11:59:54.565Z,13.41
2023-05-15T12:00:58.133Z,13.44
2023-05-15T12:02:00.053Z,13.49
2023-05-15T12:03:04.089Z,13.54
2023-05-15T12:04:12.607Z,13.55
2023-05-15T12:05:14.691Z,13.57
2023-05-15T12:06:16.738Z,13.57
2023-05-15T12:07:18.671Z,13.60
2023-05-15T12:08:24.036Z,13.60
2023-05-15T12:09:27.852Z,13.55
2023-05-15T12:10:30.350Z,13.50
2023-05-15T12:11:32.189Z,13.49
2023-05-15T12:12:35.844Z,13.49
2023-05-15T12:13:37.858Z,13.48
2023-05-15T12:14:39.778Z,13.48
2023-05-15T12:15:44.662Z,13.45
2023-05-15T12:16:46.645Z,13.44
2023-05-15T12:17:48.572Z,13.40
2023-05-15T12:18:50.713Z,13.45
2023-05-15T12:19:53.274Z,13.48
2023-05-15T12:20:55.386Z,13.50
2023-05-15T12:21:57.330Z,13.52
2023-05-15T12:22:59.256Z,13.50
2023-05-15T12:25:07.816Z,13.51
2023-05-15T12:26:09.673Z,13.56
2023-05-15T12:27:12.257Z,13.60
2023-05-15T12:28:14.751Z,13.67
2023-05-15T12:29:16.715Z,13.72
2023-05-15T12:30:18.716Z,13.74
2023-05-15T12:31:21.118Z,13.75
2023-05-15T12:32:23.260Z,13.81
2023-05-15T12:33:25.315Z,13.83
2023-05-15T12:34:27.368Z,13.86
2023-05-15T12:35:29.342Z,13.90
2023-05-15T12:36:31.573Z,13.93
2023-05-15T12:37:35.595Z,13.98
2023-05-15T12:38:37.704Z,14.07
2023-05-15T12:39:55.787Z,14.14
2023-05-15T12:40:58.109Z,14.24
2023-05-15T12:42:00.173Z,14.24
2023-05-15T12:43:06.056Z,14.26
2023-05-15T12:44:15.800Z,14.29
2023-05-15T12:45:19.076Z,14.32
2023-05-15T12:46:24.897Z,14.30
2023-05-15T12:47:27.935Z,14.38
2023-05-15T12:48:32.477Z,14.47
2023-05-15T12:49:37.433Z,14.55
2023-05-15T12:50:39.333Z,14.62
2023-05-15T12:51:44.375Z,14.64
2023-05-15T12:52:47.413Z,14.60
2023-05-15T12:53:49.219Z,14.62
2023-05-15T12:54:51.140Z,14.63
2023-05-15T12:55:53.038Z,14.66
2023-05-15T12:56:57.549Z,14.72
2023-05-15T12:58:02.406Z,14.67
2023-05-15T12:59:04.840Z,14.63
2023-05-15T13:00:08.121Z,14.67
2023-05-15T13:01:10.192Z,14.73
2023-05-15T13:02:13.289Z,14.77
2023-05-15T13:03:15.408Z,14.79
2023-05-15T13:04:17.313Z,14.79
2023-05-15T13:05:19.317Z,14.78
2023-05-15T13:06:23.627Z,14.67
2023-05-15T13:07:26.107Z,14.56
2023-05-15T13:08:28.004Z,14.54
2023-05-15T13:09:30.032Z,14.54
2023-05-15T13:10:32.861Z,14.56
2023-05-15T13:11:34.758Z,14.58
2023-05-15T13:12:38.033Z,14.58
2023-05-15T13:13:43.791Z,14.60
2023-05-15T13:14:45.834Z,14.53
2023-05-15T13:15:49.044Z,14.50
2023-05-15T13:16:50.983Z,14.56
2023-05-15T13:17:59.664Z,14.61
2023-05-15T13:19:01.678Z,14.60
2023-05-15T13:20:05.786Z,14.59
2023-05-15T13:21:07.638Z,14.64
2023-05-15T13:22:09.504Z,14.68
2023-05-15T13:23:12.834Z,14.66
2023-05-15T13:24:15.486Z,14.66
2023-05-15T13:25:17.966Z,14.72
2023-05-15T13:26:19.789Z,14.77
2023-05-15T13:27:21.718Z,14.83
2023-05-15T13:28:23.615Z,14.89
2023-05-15T13:29:25.544Z,15.00
2023-05-15T13:30:28.411Z,15.07
2023-05-15T13:31:30.294Z,15.08
2023-05-15T13:32:32.250Z,15.09
2023-05-15T13:33:36.110Z,15.11
2023-05-15T13:34:38.001Z,15.22
2023-05-15T13:35:41.428Z,15.29